DW7649 Weather Reports


Display with metric or nautical units.
time (UTC)temp
F
wind
direction
speed
MPH
gust
MPH
rain 1hr
in
rain 24hr
in
rain mn
in
humidity
%
barometer
mb
20190922124914 66 0 0.0 0.0 0.00 0.00 0.00 90 1021.8
20190922124014 66 0 0.0 0.0 0.00 0.00 0.00 90 1021.8
20190922123114 65 0 0.0 0.0 0.00 0.00 0.00 90 1021.7
20190922122214 65 0 0.0 0.0 0.00 0.00 0.00 90 1021.7
20190922121314 65 0 0.0 0.0 0.00 0.00 0.00 90 1021.4
20190922120414 64 0 0.0 0.0 0.00 0.00 0.00 90 1021.4
20190922115514 64 0 0.0 0.0 0.00 0.00 0.00 89 1021.2
20190922114614 64 0 0.0 0.0 0.00 0.00 0.00 89 1021.3
20190922113714 64 0 0.0 0.0 0.00 0.00 0.00 89 1021.2
20190922112814 64 0 0.0 0.0 0.00 0.00 0.00 89 1021.2
20190922111914 64 0 0.0 0.0 0.00 0.00 0.00 89 1021.2
20190922111014 64 0 0.0 0.0 0.00 0.00 0.00 89 1021.1
20190922110114 65 0 0.0 0.0 0.00 0.00 0.00 89 1021.1
20190922105214 65 0 0.0 0.0 0.00 0.00 0.00 89 1021.0
20190922104314 65 0 0.0 0.0 0.00 0.00 0.00 89 1021.1
20190922103414 65 0 0.0 0.0 0.00 0.00 0.00 89 1021.0
20190922102514 65 0 0.0 0.0 0.00 0.00 0.00 88 1020.9
20190922101614 65 0 0.0 0.0 0.00 0.00 0.00 88 1020.9
20190922100714 66 0 0.0 0.0 0.00 0.00 0.00 88 1020.9
20190922095814 66 0 0.0 0.0 0.00 0.00 0.00 88 1020.9
20190922094914 66 0 0.0 0.0 0.00 0.00 0.00 88 1020.7
20190922094014 66 0 0.0 0.0 0.00 0.00 0.00 88 1020.7
20190922093114 66 0 0.0 0.0 0.00 0.00 0.00 88 1020.5
20190922092214 67 0 0.0 0.0 0.00 0.00 0.00 88 1020.5
20190922091314 67 0 0.0 0.0 0.00 0.00 0.00 88 1020.5
20190922090414 67 0 0.0 0.0 0.00 0.00 0.00 88 1020.6
20190922085514 67 0 0.0 0.0 0.00 0.00 0.00 88 1020.7
20190922084614 67 0 0.0 0.0 0.00 0.00 0.00 88 1020.8
20190922083714 68 0 0.0 0.0 0.00 0.00 0.00 88 1020.7
20190922082814 68 0 0.0 0.0 0.00 0.00 0.00 88 1020.7
20190922081914 68 0 0.0 0.0 0.00 0.00 0.00 87 1020.8
20190922081014 68 0 0.0 0.0 0.00 0.00 0.00 87 1020.8
20190922080114 68 0 0.0 0.0 0.00 0.00 0.00 88 1020.8
20190922075214 68 0 0.0 0.0 0.00 0.00 0.00 87 1020.8
20190922074314 69 0 0.0 0.0 0.00 0.00 0.00 87 1020.8
20190922073414 69 0 0.0 0.0 0.00 0.00 0.00 88 1021.0
20190922072514 69 0 0.0 0.0 0.00 0.00 0.00 87 1021.0
20190922071614 69 0 0.0 0.0 0.00 0.00 0.00 86 1021.1
20190922070714 69 0 0.0 0.0 0.00 0.00 0.00 86 1021.2
20190922065814 70 0 0.0 0.0 0.00 0.00 0.00 86 1021.3
20190922064914 70 219 0.0 1.0 0.00 0.00 0.00 86 1021.3
20190922064014 70 219 0.0 1.0 0.00 0.00 0.00 86 1021.2
20190922063114 70 0 0.0 0.0 0.00 0.00 0.00 86 1021.2
20190922062214 71 0 0.0 0.0 0.00 0.00 0.00 86 1021.4
20190922061314 71 0 0.0 0.0 0.00 0.00 0.00 86 1021.5
20190922060414 71 0 0.0 0.0 0.00 0.00 0.00 86 1021.6
20190922055514 71 219 0.0 1.0 0.00 0.00 0.00 86 1021.8
20190922054614 71 219 0.0 1.0 0.00 0.00 0.00 85 1021.8
20190922053714 71 219 0.0 1.0 0.00 0.00 0.00 85 1021.8
20190922052814 71 219 0.0 1.0 0.00 0.00 0.00 85 1021.9
20190922051914 71 0 0.0 0.0 0.00 0.00 0.00 85 1022.0
20190922051014 71 0 0.0 0.0 0.00 0.00 0.00 84 1022.1
20190922050114 71 0 0.0 0.0 0.00 0.00 0.00 83 1022.1
20190922045214 72 0 0.0 0.0 0.00 0.00 0.00 83 1022.2
20190922044314 72 0 0.0 0.0 0.00 0.00 0.00 83 1022.2
20190922043414 72 0 0.0 0.0 0.00 0.00 0.00 81 1022.3
20190922042514 72 0 0.0 0.0 0.00 0.00 0.00 81 1022.3
20190922041614 72 0 0.0 0.0 0.00 0.00 0.00 81 1022.4
20190922040714 72 0 0.0 0.0 0.00 0.00 0.00 81 1022.4
20190922035814 72 0 0.0 0.0 0.00 0.00 0.00 80 1022.4
20190922034914 72 0 0.0 0.0 0.00 0.00 0.00 80 1022.5
20190922034014 72 0 0.0 0.0 0.00 0.00 0.00 80 1022.4
20190922033114 72 0 0.0 0.0 0.00 0.00 0.00 80 1022.3
20190922032214 72 219 0.0 1.0 0.00 0.00 0.00 80 1022.3
20190922031314 72 219 0.0 1.0 0.00 0.00 0.00 80 1022.4
20190922030414 72 219 0.0 2.0 0.00 0.00 0.00 80 1022.5
20190922025514 72 219 0.0 1.0 0.00 0.00 0.00 79 1022.3
20190922024614 72 219 0.0 1.0 0.00 0.00 0.00 78 1022.2
20190922023713 73 219 0.0 1.0 0.00 0.00 0.00 77 1022.2
20190922022813 73 219 1.0 1.0 0.00 0.00 0.00 76 1022.1
20190922021913 73 219 0.0 1.0 0.00 0.00 0.00 75 1022.0
20190922021014 73 219 0.0 1.0 0.00 0.00 0.00 75 1021.9
20190922020113 74 219 0.0 1.0 0.00 0.00 0.00 75 1021.9
20190922015213 74 219 1.0 2.0 0.00 0.00 0.00 75 1022.0
20190922014314 73 0 0.0 0.0 0.00 0.00 0.00 74 1022.1
20190922013413 73 240 0.0 1.0 0.00 0.00 0.00 74 1022.1
20190922012513 73 226 2.0 5.0 0.00 0.00 0.00 74 1022.1
20190922011613 73 265 1.0 5.0 0.00 0.00 0.00 74 1021.9
20190922010713 73 234 0.0 2.0 0.00 0.00 0.00 72 1021.6
20190922005813 74 0 0.0 0.0 0.00 0.00 0.00 71 1021.4
20190922004913 74 0 0.0 0.0 0.00 0.00 0.00 71 1021.2
20190922004013 75 0 0.0 0.0 0.00 0.00 0.00 69 1021.2
20190922003113 75 0 0.0 0.0 0.00 0.00 0.00 69 1021.1
20190922002213 76 234 0.0 1.0 0.00 0.00 0.00 69 1021.0
20190922001314 76 234 0.0 1.0 0.00 0.00 0.00 69 1021.0
20190922000413 77 234 0.0 2.0 0.00 0.00 0.00 67 1020.9
20190921235513 77 234 0.0 1.0 0.00 0.00 0.00 68 1021.0
20190921234613 78 234 0.0 1.0 0.00 0.00 0.00 67 1020.9
20190921233714 78 234 0.0 1.0 0.00 0.00 0.00 67 1021.0
20190921232813 78 234 0.0 1.0 0.00 0.00 0.00 66 1020.9
20190921231913 78 234 0.0 1.0 0.00 0.00 0.00 66 1020.9
20190921231013 79 234 0.0 1.0 0.00 0.00 0.00 65 1020.8
20190921230113 79 234 0.0 1.0 0.00 0.00 0.00 64 1020.7
20190921225213 80 0 0.0 0.0 0.00 0.00 0.00 62 1020.5
20190921224313 80 0 0.0 0.0 0.00 0.00 0.00 63 1020.5
20190921223413 80 0 0.0 0.0 0.00 0.00 0.00 62 1020.6
20190921222513 81 0 0.0 0.0 0.00 0.00 0.00 62 1020.6
20190921221613 81 0 0.0 0.0 0.00 0.00 0.00 61 1020.5
20190921220713 81 0 0.0 0.0 0.00 0.00 0.00 61 1020.6
20190921215813 82 0 0.0 0.0 0.00 0.00 0.00 60 1020.5
20190921214913 82 0 0.0 0.0 0.00 0.00 0.00 57 1020.4
20190921214014 83 0 0.0 0.0 0.00 0.00 0.00 55 1020.3
20190921213113 84 234 0.0 1.0 0.00 0.00 0.00 55 1020.5
20190921212213 84 234 0.0 1.0 0.00 0.00 0.00 55 1020.5
20190921211314 85 233 1.0 3.0 0.00 0.00 0.00 53 1020.3
20190921210413 86 224 0.0 2.0 0.00 0.00 0.00 51 1020.4
20190921205513 87 229 1.0 4.0 0.00 0.00 0.00 49 1020.4
20190921204613 87 214 1.0 5.0 0.00 0.00 0.00 44 1020.5
20190921203713 87 182 1.0 2.0 0.00 0.00 0.00 45 1020.5
20190921202813 88 225 1.0 3.0 0.00 0.00 0.00 45 1020.5
20190921201913 88 210 0.0 2.0 0.00 0.00 0.00 46 1020.5
20190921201013 88 237 1.0 3.0 0.00 0.00 0.00 45 1020.5
20190921200113 89 227 1.0 3.0 0.00 0.00 0.00 41 1020.7
20190921195213 90 167 1.0 2.0 0.00 0.00 0.00 43 1020.8
20190921194313 90 154 1.0 5.0 0.00 0.00 0.00 38 1020.9
20190921193413 90 177 1.0 3.0 0.00 0.00 0.00 39 1021.0
20190921192513 90 166 1.0 3.0 0.00 0.00 0.00 39 1021.1
20190921191613 89 172 2.0 6.0 0.00 0.00 0.00 40 1021.2
20190921190713 89 185 2.0 6.0 0.00 0.00 0.00 41 1021.3
20190921185813 88 167 1.0 2.0 0.00 0.00 0.00 40 1021.5
20190921184913 88 154 1.0 2.0 0.00 0.00 0.00 43 1021.6
20190921184013 89 165 2.0 4.0 0.00 0.00 0.00 39 1021.6
20190921183113 88 174 1.0 5.0 0.00 0.00 0.00 40 1021.8
20190921182213 88 193 1.0 3.0 0.00 0.00 0.00 39 1021.9
20190921181313 87 149 1.0 5.0 0.00 0.00 0.00 40 1022.0
20190921180413 87 159 1.0 3.0 0.00 0.00 0.00 42 1022.1
20190921175513 87 205 1.0 4.0 0.00 0.00 0.00 39 1022.2
20190921174613 87 216 1.0 3.0 0.00 0.00 0.00 40 1022.3
20190921173713 87 214 2.0 5.0 0.00 0.00 0.00 42 1022.4
20190921172813 86 210 1.0 3.0 0.00 0.00 0.00 40 1022.7
20190921171913 86 183 1.0 4.0 0.00 0.00 0.00 42 1022.8
20190921171014 86 238 1.0 3.0 0.00 0.00 0.00 42 1022.9
20190921170113 85 171 1.0 3.0 0.00 0.00 0.00 41 1023.0
20190921165213 85 193 1.0 4.0 0.00 0.00 0.00 39 1023.0
20190921164313 84 209 1.0 4.0 0.00 0.00 0.00 42 1023.1
20190921163413 84 165 1.0 3.0 0.00 0.00 0.00 40 1023.3
20190921162513 84 187 1.0 3.0 0.00 0.00 0.00 42 1023.4
20190921161613 84 144 0.0 2.0 0.00 0.00 0.00 39 1023.6
20190921160713 83 144 1.0 4.0 0.00 0.00 0.00 40 1023.6
20190921155813 83 197 1.0 4.0 0.00 0.00 0.00 46 1023.7
20190921154913 82 197 1.0 3.0 0.00 0.00 0.00 48 1023.8
20190921154013 81 176 1.0 3.0 0.00 0.00 0.00 54 1023.9
20190921153113 80 163 1.0 2.0 0.00 0.00 0.00 61 1023.9
20190921152213 79 166 1.0 5.0 0.00 0.00 0.00 60 1024.0
20190921151313 78 178 1.0 3.0 0.00 0.00 0.00 61 1024.0
20190921150413 77 162 1.0 3.0 0.00 0.00 0.00 65 1024.1
20190921145513 76 180 1.0 2.0 0.00 0.00 0.00 68 1024.2
20190921144613 75 181 1.0 3.0 0.00 0.00 0.00 71 1024.1
20190921143713 73 156 1.0 2.0 0.00 0.00 0.00 73 1024.3
20190921142813 71 191 0.0 2.0 0.00 0.00 0.00 77 1024.3
20190921141913 68 183 1.0 2.0 0.00 0.00 0.00 83 1024.3
20190921141013 66 167 0.0 2.0 0.00 0.00 0.00 87 1024.4
20190921140113 64 163 1.0 2.0 0.00 0.00 0.00 90 1024.4
20190921135213 63 156 0.0 2.0 0.00 0.00 0.00 91 1024.5
20190921134313 62 155 0.0 1.0 0.00 0.00 0.00 91 1024.5
20190921133413 61 155 0.0 1.0 0.00 0.00 0.00 91 1024.5
20190921132513 60 155 0.0 1.0 0.00 0.00 0.00 91 1024.6
20190921131613 59 155 0.0 1.0 0.00 0.00 0.00 91 1024.7
20190921130713 58 0 0.0 0.0 0.00 0.00 0.00 91 1024.7
20190921125813 57 0 0.0 0.0 0.00 0.00 0.00 90 1024.6